00UT weather

CLOSED Clear Creek Ranch Airport
Kanab, Utah, United States

Public forecast

Using degrees Fahrenheit for public forecast. Weather courtesy of forecast.io.

METAR (pilot weather report)

Closest report is Colorado City Municipal Airport, 19.6 nm (36.3 km) SSW. Retrieved 2019/07/18 03:35 UTC (12 minutes ago):

KAZC 180335Z AUTO 25006KT 10SM CLR 27/M07 A3011 RMK AO2

TAF (pilot weather forecast)

Forecast is more than 12 hours old.

Closest forecast is Cedar City Regional Airport, 30.2 nm (56.0 km) NNW. Retrieved 2019/07/17 00:30 UTC (1 day ago):

TAF KCDC 172329Z 1800/1824 21018G28KT P6SM SKC FM180300 18011KT P6SM SKC FM181600 21016G26KT P6SM SKC